createdAt,value
2022-11-26T00:02:25.792Z,58.55
2022-11-26T00:04:55.713Z,60.42
2022-11-26T00:07:26.924Z,59.60
2022-11-26T00:09:55.922Z,66.63
2022-11-26T00:12:28.035Z,63.55
2022-11-26T00:14:56.390Z,62.13
2022-11-26T00:17:26.180Z,54.85
2022-11-26T00:19:54.057Z,61.30
2022-11-26T00:22:25.516Z,66.47
2022-11-26T00:24:54.413Z,62.00
2022-11-26T00:27:25.111Z,60.65
2022-11-26T00:29:53.621Z,59.58
2022-11-26T00:32:24.385Z,65.72
2022-11-26T00:34:53.763Z,61.97
2022-11-26T00:37:25.616Z,63.30
2022-11-26T00:39:53.630Z,62.67
2022-11-26T00:42:21.617Z,63.67
2022-11-26T00:44:49.573Z,59.90
2022-11-26T00:47:17.550Z,62.60
2022-11-26T00:49:45.408Z,60.75
2022-11-26T00:52:29.605Z,57.67
2022-11-26T00:54:57.806Z,60.75
2022-11-26T00:57:25.815Z,54.45
2022-11-26T00:59:53.680Z,64.00
2022-11-26T01:02:21.574Z,71.40
2022-11-26T01:04:49.425Z,67.03
2022-11-26T01:07:18.789Z,72.88
2022-11-26T01:09:48.366Z,68.20
2022-11-26T01:12:16.859Z,69.53
2022-11-26T01:14:44.990Z,72.20
2022-11-26T01:17:13.512Z,64.63
2022-11-26T01:19:41.311Z,62.22
2022-11-26T01:22:20.098Z,60.33
2022-11-26T01:24:49.901Z,56.83
2022-11-26T01:27:20.068Z,58.53
2022-11-26T01:29:47.922Z,55.88
2022-11-26T01:32:16.158Z,52.17
2022-11-26T01:34:44.071Z,54.03
2022-11-26T01:37:14.319Z,49.17
2022-11-26T01:39:42.305Z,47.03
2022-11-26T01:42:24.059Z,47.85
2022-11-26T01:44:51.938Z,44.40
2022-11-26T01:47:23.394Z,58.45
2022-11-26T01:50:48.171Z,48.85
2022-11-26T01:53:24.793Z,47.08
2022-11-26T01:55:55.399Z,45.33
2022-11-26T01:58:29.488Z,48.92
2022-11-26T02:00:57.791Z,53.40
2022-11-26T02:03:26.407Z,44.65
2022-11-26T02:05:59.838Z,45.15
2022-11-26T02:08:31.203Z,50.40
2022-11-26T02:10:59.125Z,45.88
2022-11-26T02:13:28.650Z,39.83
2022-11-26T02:16:05.087Z,40.97
2022-11-26T02:18:38.974Z,43.53
2022-11-26T02:21:10.004Z,51.03
2022-11-26T02:24:08.672Z,46.25
2022-11-26T02:27:00.760Z,46.45
2022-11-26T02:29:47.725Z,40.83
2022-11-26T02:32:22.281Z,43.03
2022-11-26T02:34:56.260Z,47.58
2022-11-26T02:37:28.996Z,51.50
2022-11-26T02:39:58.125Z,53.08
2022-11-26T02:42:28.319Z,31.15
2022-11-26T02:45:01.863Z,39.40
2022-11-26T02:47:31.046Z,40.10
2022-11-26T02:50:03.972Z,35.88
2022-11-26T02:52:34.513Z,33.08
2022-11-26T02:55:04.971Z,39.28
2022-11-26T02:57:36.297Z,33.08
2022-11-26T03:00:06.568Z,36.40
2022-11-26T03:02:41.060Z,37.53
2022-11-26T03:05:10.599Z,32.25
2022-11-26T03:07:39.487Z,31.55
2022-11-26T03:10:08.987Z,30.08
2022-11-26T03:12:36.868Z,37.65
2022-11-26T03:15:07.541Z,38.53
2022-11-26T03:17:35.614Z,35.63
2022-11-26T03:20:04.531Z,35.80
2022-11-26T03:22:32.642Z,27.15
2022-11-26T03:25:00.478Z,31.73
2022-11-26T03:27:28.328Z,33.90
2022-11-26T03:29:56.192Z,27.75
2022-11-26T03:32:25.708Z,27.17
2022-11-26T03:34:53.627Z,31.58
2022-11-26T03:37:21.874Z,29.17
2022-11-26T03:39:49.776Z,29.33
2022-11-26T03:42:17.742Z,40.20
2022-11-26T03:44:45.613Z,34.67
2022-11-26T03:47:13.497Z,25.83
2022-11-26T03:49:42.726Z,29.58
2022-11-26T03:52:10.801Z,42.63
2022-11-26T03:54:38.900Z,30.35
2022-11-26T03:57:06.925Z,34.15
2022-11-26T03:59:34.852Z,26.38
2022-11-26T04:02:02.875Z,30.30
2022-11-26T04:04:31.131Z,36.47
2022-11-26T04:07:00.466Z,29.70
2022-11-26T04:09:28.289Z,25.83
2022-11-26T04:11:56.112Z,28.85
2022-11-26T04:14:24.091Z,39.38
2022-11-26T04:16:52.103Z,20.75
2022-11-26T04:19:20.106Z,31.98
2022-11-26T04:21:47.993Z,28.40
2022-11-26T04:24:17.207Z,25.58
2022-11-26T04:26:45.626Z,36.80
2022-11-26T04:29:13.545Z,25.13
2022-11-26T04:31:41.530Z,32.50
2022-11-26T04:34:09.375Z,36.40
2022-11-26T04:36:37.210Z,30.90
2022-11-26T04:39:05.273Z,29.90
2022-11-26T04:41:34.719Z,24.23
2022-11-26T04:44:02.533Z,28.20
2022-11-26T04:46:30.457Z,25.35
2022-11-26T04:48:58.396Z,33.10
2022-11-26T04:51:26.269Z,27.92
2022-11-26T04:53:55.966Z,19.77
2022-11-26T04:56:24.044Z,26.90
2022-11-26T04:58:53.261Z,34.17
2022-11-26T05:01:21.124Z,32.65
2022-11-26T05:03:48.961Z,19.98
2022-11-26T05:06:16.810Z,27.63
2022-11-26T05:08:44.736Z,31.98
2022-11-26T05:11:12.578Z,27.13
2022-11-26T05:13:40.521Z,22.25
2022-11-26T05:16:10.177Z,29.88
2022-11-26T05:18:38.146Z,36.85
2022-11-26T05:21:06.408Z,36.38
2022-11-26T05:23:34.245Z,29.15
2022-11-26T05:26:02.217Z,31.35
2022-11-26T05:28:30.203Z,30.67
2022-11-26T05:31:01.746Z,39.95
2022-11-26T05:33:31.913Z,41.10
2022-11-26T05:35:59.798Z,24.55
2022-11-26T05:38:27.713Z,35.70
2022-11-26T05:40:55.769Z,29.85
2022-11-26T05:43:23.804Z,22.58
2022-11-26T05:45:51.701Z,34.50
2022-11-26T05:48:19.533Z,30.10
2022-11-26T05:50:53.189Z,31.42
2022-11-26T05:53:22.313Z,33.42
2022-11-26T05:55:50.162Z,44.17
2022-11-26T05:58:17.960Z,34.63
2022-11-26T06:00:45.861Z,30.17
2022-11-26T06:03:19.584Z,27.02
2022-11-26T06:05:49.718Z,36.15
2022-11-26T06:08:17.581Z,33.33
2022-11-26T06:10:46.274Z,28.08
2022-11-26T06:13:14.303Z,27.63
2022-11-26T06:15:42.354Z,31.13
2022-11-26T06:18:10.172Z,30.33
2022-11-26T06:20:38.706Z,29.75
2022-11-26T06:23:08.107Z,37.38
2022-11-26T06:25:35.966Z,20.92
2022-11-26T06:28:03.846Z,26.50
2022-11-26T06:30:31.895Z,30.15
2022-11-26T06:32:59.759Z,38.55
2022-11-26T06:35:27.800Z,30.50
2022-11-26T06:37:55.649Z,34.40
2022-11-26T06:40:24.914Z,34.35
2022-11-26T06:42:53.910Z,39.15
2022-11-26T06:45:22.584Z,28.33
2022-11-26T06:47:52.196Z,41.90
2022-11-26T06:50:22.755Z,31.05
2022-11-26T06:52:53.050Z,34.72
2022-11-26T06:55:21.503Z,32.03
2022-11-26T06:57:52.352Z,32.17
2022-11-26T07:00:22.062Z,35.30
2022-11-26T07:02:50.114Z,32.88
2022-11-26T07:05:18.228Z,37.47
2022-11-26T07:07:46.452Z,30.48
2022-11-26T07:10:14.441Z,31.17
2022-11-26T07:12:42.349Z,24.98
2022-11-26T07:15:12.792Z,28.95
2022-11-26T07:17:40.638Z,33.05
2022-11-26T07:20:09.480Z,38.95
2022-11-26T07:22:37.377Z,29.20
2022-11-26T07:25:10.836Z,26.95
2022-11-26T07:27:40.326Z,39.05
2022-11-26T07:30:09.563Z,32.75
2022-11-26T07:32:38.883Z,33.75
2022-11-26T07:35:07.535Z,42.05
2022-11-26T07:37:35.625Z,38.75
2022-11-26T07:40:04.239Z,36.05
2022-11-26T07:42:33.284Z,28.10
2022-11-26T07:45:01.205Z,34.70
2022-11-26T07:47:29.180Z,43.05
2022-11-26T07:49:58.391Z,37.20
2022-11-26T07:52:26.373Z,32.92
2022-11-26T07:54:54.271Z,34.17
2022-11-26T07:57:23.050Z,39.83
2022-11-26T07:59:50.965Z,32.60
2022-11-26T08:02:19.440Z,38.55
2022-11-26T08:04:47.334Z,34.08
2022-11-26T08:07:23.277Z,28.10
2022-11-26T08:09:55.098Z,28.80
2022-11-26T08:12:23.239Z,30.17
2022-11-26T08:14:51.429Z,38.45
2022-11-26T08:17:19.280Z,42.72
2022-11-26T08:19:47.166Z,31.67
2022-11-26T08:22:16.746Z,33.65
2022-11-26T08:24:44.538Z,39.05
2022-11-26T08:27:12.504Z,32.67
2022-11-26T08:29:40.377Z,27.60
2022-11-26T08:32:08.310Z,35.60
2022-11-26T08:34:36.523Z,42.15
2022-11-26T08:37:04.556Z,31.35
2022-11-26T08:39:33.748Z,38.30
2022-11-26T08:42:01.615Z,33.45
2022-11-26T08:44:29.459Z,44.53
2022-11-26T08:46:57.338Z,42.83
2022-11-26T08:49:25.484Z,40.70
2022-11-26T08:51:56.106Z,47.33
2022-11-26T08:54:24.186Z,30.50
2022-11-26T08:56:53.503Z,37.88
2022-11-26T08:59:24.202Z,32.10
2022-11-26T09:01:52.332Z,31.45
2022-11-26T09:04:20.348Z,24.65
2022-11-26T09:06:48.303Z,26.35
2022-11-26T09:09:17.697Z,34.30
2022-11-26T09:11:49.452Z,34.28
2022-11-26T09:14:20.781Z,24.42
2022-11-26T09:16:48.961Z,25.77
2022-11-26T09:19:17.865Z,22.67
2022-11-26T09:21:46.432Z,19.52
2022-11-26T09:24:16.784Z,23.52
2022-11-26T09:26:44.979Z,16.02
2022-11-26T09:29:14.346Z,19.00
2022-11-26T09:32:07.624Z,15.80
2022-11-26T09:34:33.027Z,14.70
2022-11-26T09:37:00.911Z,15.75
2022-11-26T09:39:29.283Z,17.17
2022-11-26T09:42:05.405Z,19.13
2022-11-26T09:44:47.286Z,14.85
2022-11-26T09:47:20.081Z,16.98
2022-11-26T09:49:58.254Z,19.08
2022-11-26T09:52:29.651Z,14.98
2022-11-26T09:55:06.457Z,17.77
2022-11-26T09:57:40.873Z,18.45
2022-11-26T10:00:22.518Z,19.40
2022-11-26T10:02:54.828Z,16.05
2022-11-26T10:05:26.297Z,17.20
2022-11-26T10:08:05.677Z,19.95
2022-11-26T10:10:47.774Z,20.13
2022-11-26T10:13:23.548Z,15.63
2022-11-26T10:16:02.903Z,16.77
2022-11-26T10:18:40.404Z,15.73
2022-11-26T10:21:27.221Z,14.00
2022-11-26T10:24:05.679Z,14.18
2022-11-26T10:26:36.650Z,13.82
2022-11-26T10:29:25.602Z,10.15
2022-11-26T10:31:58.858Z,10.55
2022-11-26T10:34:39.328Z,11.75
2022-11-26T10:37:08.244Z,14.27
2022-11-26T10:39:36.122Z,9.00
2022-11-26T10:42:10.525Z,9.65
2022-11-26T10:44:41.441Z,10.05
2022-11-26T10:47:22.630Z,10.45
2022-11-26T10:49:53.801Z,8.43
2022-11-26T10:52:25.381Z,8.15
2022-11-26T10:55:19.861Z,10.30
2022-11-26T10:57:52.625Z,9.95
2022-11-26T11:00:34.225Z,14.50
2022-11-26T11:03:03.783Z,16.08
2022-11-26T11:05:34.549Z,8.50
2022-11-26T11:08:02.840Z,9.45
2022-11-26T11:10:30.735Z,11.23
2022-11-26T11:13:19.421Z,16.58
2022-11-26T11:15:47.503Z,10.73
2022-11-26T11:18:20.413Z,13.95
2022-11-26T11:20:56.920Z,11.60
2022-11-26T11:23:45.788Z,14.45
2022-11-26T11:26:21.245Z,10.55
2022-11-26T11:28:51.818Z,12.25
2022-11-26T11:31:22.188Z,11.48
2022-11-26T11:33:51.391Z,21.23
2022-11-26T11:36:28.880Z,13.85
2022-11-26T11:38:58.551Z,11.63
2022-11-26T11:41:31.264Z,14.00
2022-11-26T11:44:06.956Z,12.20
2022-11-26T11:47:07.152Z,15.50
2022-11-26T11:50:02.563Z,10.10
2022-11-26T11:52:40.607Z,11.18
2022-11-26T11:55:22.133Z,13.10
2022-11-26T11:58:12.865Z,16.48
2022-11-26T12:00:51.340Z,12.63
2022-11-26T12:03:44.334Z,22.10
2022-11-26T12:06:22.385Z,14.18
2022-11-26T12:09:02.775Z,19.58
2022-11-26T12:11:45.359Z,18.95
2022-11-26T12:14:20.654Z,16.08
2022-11-26T12:16:52.025Z,15.15
2022-11-26T12:19:28.599Z,17.55
2022-11-26T12:22:03.045Z,16.27
2022-11-26T12:24:41.535Z,17.42
2022-11-26T12:27:19.636Z,19.17
2022-11-26T12:29:53.720Z,16.10
2022-11-26T12:32:29.085Z,14.35
2022-11-26T12:34:59.861Z,16.42
2022-11-26T12:37:32.679Z,15.85
2022-11-26T12:40:06.091Z,17.80
2022-11-26T12:42:41.970Z,19.92
2022-11-26T12:45:20.354Z,16.48
2022-11-26T12:47:54.823Z,18.02
2022-11-26T12:50:35.388Z,15.73
2022-11-26T12:53:13.635Z,15.60
2022-11-26T12:55:47.757Z,19.65
2022-11-26T12:58:19.705Z,19.00
2022-11-26T13:00:49.708Z,21.20
2022-11-26T13:03:19.707Z,25.70
2022-11-26T13:06:00.317Z,17.40
2022-11-26T13:08:40.020Z,26.73
2022-11-26T13:11:23.360Z,21.15
2022-11-26T13:13:58.392Z,20.80
2022-11-26T13:16:35.943Z,24.05
2022-11-26T13:19:09.098Z,22.85
2022-11-26T13:21:52.878Z,25.38
2022-11-26T13:24:37.571Z,21.58
2022-11-26T13:27:25.116Z,25.13
2022-11-26T13:30:13.155Z,22.92
2022-11-26T13:33:18.177Z,20.27
2022-11-26T13:36:12.806Z,22.75
2022-11-26T13:38:55.598Z,30.85
2022-11-26T13:41:41.737Z,23.77
2022-11-26T13:44:42.501Z,22.38
2022-11-26T13:47:15.202Z,22.48
2022-11-26T13:49:48.921Z,23.10
2022-11-26T13:52:22.130Z,29.83
2022-11-26T13:54:57.418Z,21.17
2022-11-26T13:57:31.472Z,25.08
2022-11-26T14:00:01.225Z,25.08
2022-11-26T14:02:44.430Z,27.30
2022-11-26T14:05:15.054Z,22.05
2022-11-26T14:07:44.370Z,20.23
2022-11-26T14:10:41.400Z,19.85
2022-11-26T14:13:17.528Z,23.13
2022-11-26T14:15:54.635Z,23.45
2022-11-26T14:19:01.051Z,31.75
2022-11-26T14:21:30.699Z,25.63
2022-11-26T14:24:01.442Z,23.45
2022-11-26T14:26:34.335Z,26.35
2022-11-26T14:29:12.070Z,21.08
2022-11-26T14:31:44.049Z,28.95
2022-11-26T14:34:16.952Z,22.48
2022-11-26T14:36:56.682Z,25.50
2022-11-26T14:39:25.262Z,18.13
2022-11-26T14:41:57.885Z,25.20
2022-11-26T14:44:30.091Z,27.52
2022-11-26T14:47:01.771Z,27.25
2022-11-26T14:49:36.487Z,25.02
2022-11-26T14:52:15.272Z,23.02
2022-11-26T14:54:45.783Z,27.65
2022-11-26T14:57:18.536Z,23.27
2022-11-26T14:59:57.855Z,27.65
2022-11-26T15:02:28.758Z,23.40
2022-11-26T15:05:04.435Z,25.92
2022-11-26T15:07:32.975Z,28.70
2022-11-26T15:10:02.739Z,31.55
2022-11-26T15:12:31.685Z,29.15
2022-11-26T15:15:01.302Z,23.85
2022-11-26T15:17:32.743Z,23.42
2022-11-26T15:20:05.377Z,21.10
2022-11-26T15:22:37.706Z,25.58
2022-11-26T15:25:07.364Z,19.88
2022-11-26T15:27:38.236Z,18.80
2022-11-26T15:30:19.129Z,22.67
2022-11-26T15:32:48.593Z,18.10
2022-11-26T15:35:17.621Z,21.42
2022-11-26T15:37:45.514Z,23.48
2022-11-26T15:40:23.095Z,21.23
2022-11-26T15:42:57.226Z,22.38
2022-11-26T15:45:35.323Z,27.08
2022-11-26T15:48:07.451Z,30.70
2022-11-26T15:50:38.505Z,22.40
2022-11-26T15:53:14.488Z,28.85
2022-11-26T15:55:47.358Z,28.88
2022-11-26T15:58:21.835Z,21.45
2022-11-26T16:00:53.571Z,26.42
2022-11-26T16:03:47.394Z,29.23
2022-11-26T16:06:40.072Z,30.08
2022-11-26T16:09:27.880Z,34.92
2022-11-26T16:12:01.521Z,34.30
2022-11-26T16:14:34.637Z,29.05
2022-11-26T16:17:08.544Z,31.33
2022-11-26T16:19:39.632Z,29.13
2022-11-26T16:22:07.991Z,27.92
2022-11-26T16:24:38.753Z,32.67
2022-11-26T16:27:08.225Z,26.25
2022-11-26T16:29:36.870Z,32.95
2022-11-26T16:32:05.008Z,22.15
2022-11-26T16:34:32.925Z,25.73
2022-11-26T16:37:04.023Z,28.02
2022-11-26T16:39:37.545Z,26.98
2022-11-26T16:42:15.158Z,22.33
2022-11-26T16:44:43.072Z,31.33
2022-11-26T16:47:16.102Z,27.02
2022-11-26T16:49:44.214Z,29.30
2022-11-26T16:52:17.413Z,32.00
2022-11-26T16:54:45.257Z,26.45
2022-11-26T16:57:15.858Z,30.58
2022-11-26T16:59:45.325Z,31.02
2022-11-26T17:02:17.623Z,36.05
2022-11-26T17:04:45.947Z,31.02
2022-11-26T17:07:18.418Z,35.63
2022-11-26T17:09:46.699Z,36.55
2022-11-26T17:12:17.944Z,29.10
2022-11-26T17:14:46.261Z,26.98
2022-11-26T17:17:20.371Z,33.40
2022-11-26T17:19:51.590Z,32.30
2022-11-26T17:22:21.523Z,31.80
2022-11-26T17:24:49.437Z,29.35
2022-11-26T17:27:19.040Z,31.55
2022-11-26T17:29:47.691Z,27.70
2022-11-26T17:32:17.878Z,32.05
2022-11-26T17:34:46.549Z,36.90
2022-11-26T17:37:16.569Z,30.15
2022-11-26T17:39:45.788Z,31.27
2022-11-26T17:42:13.662Z,41.15
2022-11-26T17:44:41.798Z,30.27
2022-11-26T17:47:17.370Z,34.50
2022-11-26T17:49:46.334Z,30.92
2022-11-26T17:52:14.631Z,34.63
2022-11-26T17:54:42.729Z,40.17
2022-11-26T17:57:13.036Z,36.15
2022-11-26T17:59:41.568Z,35.83
2022-11-26T18:02:10.072Z,32.78
2022-11-26T18:04:38.779Z,42.17
2022-11-26T18:07:08.615Z,42.63
2022-11-26T18:09:36.670Z,47.60
2022-11-26T18:12:05.882Z,38.58
2022-11-26T18:14:35.710Z,46.00
2022-11-26T18:17:04.737Z,45.15
2022-11-26T18:19:32.622Z,44.75
2022-11-26T18:22:00.500Z,49.17
2022-11-26T18:24:28.344Z,43.90
2022-11-26T18:26:56.847Z,41.92
2022-11-26T18:29:25.229Z,44.03
2022-11-26T18:31:54.957Z,50.92
2022-11-26T18:34:22.822Z,49.67
2022-11-26T18:36:53.765Z,47.45
2022-11-26T18:39:22.033Z,47.45
2022-11-26T18:41:49.932Z,52.30
2022-11-26T18:44:17.842Z,56.17
2022-11-26T18:46:45.972Z,63.03
2022-11-26T18:49:15.408Z,49.67
2022-11-26T18:51:43.282Z,55.20
2022-11-26T18:54:11.325Z,59.92
2022-11-26T18:56:39.159Z,56.67
2022-11-26T18:59:07.018Z,45.53
2022-11-26T19:01:34.976Z,53.45
2022-11-26T19:04:05.556Z,60.65
2022-11-26T19:06:36.577Z,62.85
2022-11-26T19:09:07.686Z,59.63
2022-11-26T19:11:35.944Z,56.05
2022-11-26T19:14:04.497Z,52.03
2022-11-26T19:16:32.445Z,52.67
2022-11-26T19:19:02.831Z,48.92
2022-11-26T19:21:32.931Z,52.35
2022-11-26T19:24:04.777Z,58.45
2022-11-26T19:26:33.202Z,58.75
2022-11-26T19:29:02.140Z,59.45
2022-11-26T19:31:30.655Z,58.70
2022-11-26T19:33:59.046Z,55.75
2022-11-26T19:36:27.764Z,59.15
2022-11-26T19:38:57.157Z,52.50
2022-11-26T19:41:28.013Z,58.58
2022-11-26T19:43:56.402Z,51.72
2022-11-26T19:46:25.699Z,53.20
2022-11-26T19:48:55.559Z,50.15
2022-11-26T19:51:26.331Z,49.10
2022-11-26T19:53:56.175Z,56.25
2022-11-26T19:56:27.675Z,56.83
2022-11-26T19:58:57.831Z,65.40
2022-11-26T20:01:27.529Z,57.75
2022-11-26T20:03:55.491Z,54.28
2022-11-26T20:06:26.637Z,54.63
2022-11-26T20:08:54.843Z,54.33
2022-11-26T20:11:23.520Z,57.05
2022-11-26T20:13:53.414Z,59.15
2022-11-26T20:16:23.629Z,54.65
2022-11-26T20:18:51.937Z,53.47
2022-11-26T20:21:21.875Z,50.05
2022-11-26T20:23:51.301Z,57.03
2022-11-26T20:26:22.621Z,62.97
2022-11-26T20:28:52.617Z,54.47
2022-11-26T20:31:23.939Z,51.72
2022-11-26T20:33:52.986Z,61.67
2022-11-26T20:36:23.290Z,53.22
2022-11-26T20:38:53.652Z,61.08
2022-11-26T20:41:24.136Z,54.72
2022-11-26T20:43:58.255Z,63.17
2022-11-26T20:46:28.061Z,60.15
2022-11-26T20:48:56.501Z,62.80
2022-11-26T20:51:24.878Z,68.88
2022-11-26T20:53:53.363Z,73.78
2022-11-26T20:56:22.895Z,61.97
2022-11-26T20:58:53.598Z,67.65
2022-11-26T21:01:23.550Z,62.58
2022-11-26T21:03:51.824Z,64.15
2022-11-26T21:06:25.940Z,62.47
2022-11-26T21:08:57.267Z,60.40
2022-11-26T21:11:25.362Z,59.35
2022-11-26T21:13:54.652Z,62.03
2022-11-26T21:16:23.431Z,59.65
2022-11-26T21:18:53.700Z,57.28
2022-11-26T21:21:21.819Z,52.90
2022-11-26T21:23:49.818Z,66.05
2022-11-26T21:26:19.757Z,67.60
2022-11-26T21:28:51.934Z,63.10
2022-11-26T21:31:21.981Z,54.00
2022-11-26T21:33:55.585Z,49.83
2022-11-26T21:36:24.448Z,60.88
2022-11-26T21:38:52.444Z,61.30
2022-11-26T21:41:21.093Z,74.45
2022-11-26T21:43:50.179Z,64.43
2022-11-26T21:46:20.526Z,61.03
2022-11-26T21:48:50.043Z,65.53
2022-11-26T21:51:19.294Z,68.07
2022-11-26T21:53:49.562Z,67.13
2022-11-26T21:56:19.535Z,70.07
2022-11-26T21:58:48.018Z,64.45
2022-11-26T22:01:18.077Z,69.72
2022-11-26T22:03:47.923Z,72.82
2022-11-26T22:06:18.438Z,64.57
2022-11-26T22:08:47.487Z,69.63
2022-11-26T22:11:17.178Z,71.05
2022-11-26T22:13:49.425Z,71.15
2022-11-26T22:16:19.406Z,71.47
2022-11-26T22:18:48.064Z,71.40
2022-11-26T22:21:19.890Z,73.07
2022-11-26T22:23:48.053Z,72.93
2022-11-26T22:26:16.024Z,74.43
2022-11-26T22:28:44.049Z,77.15
2022-11-26T22:31:13.625Z,86.63
2022-11-26T22:33:42.212Z,80.30
2022-11-26T22:36:10.518Z,75.57
2022-11-26T22:38:41.267Z,66.80
2022-11-26T22:41:11.016Z,78.82
2022-11-26T22:43:38.936Z,70.45
2022-11-26T22:46:07.859Z,70.68
2022-11-26T22:48:36.161Z,63.88
2022-11-26T22:51:05.028Z,61.15
2022-11-26T22:53:33.401Z,65.40
2022-11-26T22:56:04.068Z,68.13
2022-11-26T22:58:33.759Z,65.05
2022-11-26T23:01:03.449Z,71.50
2022-11-26T23:03:34.439Z,99.47
2022-11-26T23:06:07.054Z,118.78
2022-11-26T23:08:35.487Z,98.95
2022-11-26T23:11:08.625Z,111.63
2022-11-26T23:13:37.229Z,118.30
2022-11-26T23:16:08.380Z,94.85
2022-11-26T23:18:37.324Z,78.00
2022-11-26T23:21:07.350Z,75.13
2022-11-26T23:23:36.272Z,81.53
2022-11-26T23:26:05.516Z,68.60
2022-11-26T23:28:36.280Z,73.68
2022-11-26T23:31:05.900Z,72.10
2022-11-26T23:33:34.641Z,83.85
2022-11-26T23:36:03.168Z,65.57
2022-11-26T23:38:31.028Z,66.90
2022-11-26T23:41:01.421Z,69.50
2022-11-26T23:43:31.207Z,70.00
2022-11-26T23:46:04.631Z,66.82
2022-11-26T23:48:33.161Z,65.13
2022-11-26T23:51:01.363Z,85.93
2022-11-26T23:53:29.299Z,77.05
2022-11-26T23:56:02.741Z,71.97
2022-11-26T23:58:30.666Z,77.00
